sensor_id;sensor_type;location;lat;lon;timestamp;pressure;altitude;pressure_sealevel;temperature;humidity
57600;BME280;43426;43.594;24.334;2023-06-10T00:01:07;100604.00;;;15.98;100.00
57600;BME280;43426;43.594;24.334;2023-06-10T00:03:32;100609.03;;;16.02;100.00
57600;BME280;43426;43.594;24.334;2023-06-10T00:05:58;100597.94;;;15.90;99.81
57600;BME280;43426;43.594;24.334;2023-06-10T00:08:23;100616.53;;;16.40;97.30
57600;BME280;43426;43.594;24.334;2023-06-10T00:10:49;100575.75;;;16.06;97.52
57600;BME280;43426;43.594;24.334;2023-06-10T00:13:15;100617.81;;;16.10;98.51
57600;BME280;43426;43.594;24.334;2023-06-10T00:15:41;100599.81;;;15.89;99.73
57600;BME280;43426;43.594;24.334;2023-06-10T00:18:07;100614.06;;;15.98;100.00
57600;BME280;43426;43.594;24.334;2023-06-10T00:20:35;100603.38;;;15.90;100.00
57600;BME280;43426;43.594;24.334;2023-06-10T00:23:03;100601.72;;;15.89;100.00
57600;BME280;43426;43.594;24.334;2023-06-10T00:25:28;100616.56;;;15.99;100.00
57600;BME280;43426;43.594;24.334;2023-06-10T00:27:55;100606.94;;;15.90;100.00
57600;BME280;43426;43.594;24.334;2023-06-10T00:30:20;100614.50;;;15.88;100.00
57600;BME280;43426;43.594;24.334;2023-06-10T00:32:46;100620.75;;;15.89;100.00
57600;BME280;43426;43.594;24.334;2023-06-10T00:35:11;100610.69;;;15.96;100.00
57600;BME280;43426;43.594;24.334;2023-06-10T00:37:37;100618.66;;;15.97;100.00
57600;BME280;43426;43.594;24.334;2023-06-10T00:40:03;100611.34;;;15.98;100.00
57600;BME280;43426;43.594;24.334;2023-06-10T00:42:29;100601.06;;;16.00;100.00
57600;BME280;43426;43.594;24.334;2023-06-10T00:44:55;100614.25;;;16.10;100.00
57600;BME280;43426;43.594;24.334;2023-06-10T00:47:21;100580.16;;;16.00;100.00
57600;BME280;43426;43.594;24.334;2023-06-10T00:49:47;100598.97;;;16.09;100.00
57600;BME280;43426;43.594;24.334;2023-06-10T00:52:14;100602.53;;;16.23;99.93
57600;BME280;43426;43.594;24.334;2023-06-10T00:54:41;100585.78;;;16.06;99.81
57600;BME280;43426;43.594;24.334;2023-06-10T00:57:07;100621.16;;;16.19;100.00
57600;BME280;43426;43.594;24.334;2023-06-10T00:59:32;100627.03;;;16.16;100.00
57600;BME280;43426;43.594;24.334;2023-06-10T01:01:58;100629.31;;;16.26;100.00
57600;BME280;43426;43.594;24.334;2023-06-10T01:04:24;100607.75;;;16.04;100.00
57600;BME280;43426;43.594;24.334;2023-06-10T01:09:40;100629.31;;;16.06;100.00
57600;BME280;43426;43.594;24.334;2023-06-10T01:14:38;100635.41;;;16.14;100.00
57600;BME280;43426;43.594;24.334;2023-06-10T01:17:10;100647.97;;;16.15;100.00
57600;BME280;43426;43.594;24.334;2023-06-10T01:19:35;100627.25;;;16.14;100.00
57600;BME280;43426;43.594;24.334;2023-06-10T01:22:02;100604.84;;;15.86;100.00
57600;BME280;43426;43.594;24.334;2023-06-10T01:24:27;100630.78;;;15.95;100.00
57600;BME280;43426;43.594;24.334;2023-06-10T01:26:55;100598.34;;;15.73;100.00
57600;BME280;43426;43.594;24.334;2023-06-10T01:29:31;100637.09;;;15.95;100.00
57600;BME280;43426;43.594;24.334;2023-06-10T01:35:11;100630.78;;;15.95;100.00
57600;BME280;43426;43.594;24.334;2023-06-10T01:37:43;100627.25;;;15.88;100.00
57600;BME280;43426;43.594;24.334;2023-06-10T01:40:11;100605.28;;;15.82;100.00
57600;BME280;43426;43.594;24.334;2023-06-10T01:42:37;100611.75;;;15.81;100.00
57600;BME280;43426;43.594;24.334;2023-06-10T01:45:03;100639.81;;;15.89;100.00
57600;BME280;43426;43.594;24.334;2023-06-10T01:47:28;100631.41;;;15.83;100.00
57600;BME280;43426;43.594;24.334;2023-06-10T01:49:54;100635.63;;;15.86;100.00
57600;BME280;43426;43.594;24.334;2023-06-10T01:52:19;100598.31;;;15.60;100.00
57600;BME280;43426;43.594;24.334;2023-06-10T01:54:44;100631.19;;;15.78;100.00
57600;BME280;43426;43.594;24.334;2023-06-10T01:57:10;100609.19;;;15.60;100.00
57600;BME280;43426;43.594;24.334;2023-06-10T01:59:35;100635.38;;;15.74;100.00
57600;BME280;43426;43.594;24.334;2023-06-10T02:02:03;100602.72;;;15.54;100.00
57600;BME280;43426;43.594;24.334;2023-06-10T02:04:28;100631.81;;;15.60;100.00
57600;BME280;43426;43.594;24.334;2023-06-10T02:06:53;100584.72;;;15.53;100.00
57600;BME280;43426;43.594;24.334;2023-06-10T02:09:21;100589.94;;;15.55;100.00
57600;BME280;43426;43.594;24.334;2023-06-10T02:11:48;100621.13;;;15.72;100.00
57600;BME280;43426;43.594;24.334;2023-06-10T02:14:13;100631.84;;;15.87;100.00
57600;BME280;43426;43.594;24.334;2023-06-10T02:16:38;100639.34;;;16.25;100.00
57600;BME280;43426;43.594;24.334;2023-06-10T02:19:04;100644.19;;;16.03;100.00
57600;BME280;43426;43.594;24.334;2023-06-10T02:21:32;100604.81;;;15.79;100.00
57600;BME280;43426;43.594;24.334;2023-06-10T02:24:00;100632.69;;;15.88;100.00
57600;BME280;43426;43.594;24.334;2023-06-10T02:26:26;100627.47;;;16.06;100.00
57600;BME280;43426;43.594;24.334;2023-06-10T02:28:51;100637.91;;;15.89;100.00
57600;BME280;43426;43.594;24.334;2023-06-10T02:31:17;100619.06;;;15.88;100.00
57600;BME280;43426;43.594;24.334;2023-06-10T02:33:43;100618.47;;;15.92;100.00
57600;BME280;43426;43.594;24.334;2023-06-10T02:36:09;100600.66;;;15.83;100.00
57600;BME280;43426;43.594;24.334;2023-06-10T02:38:39;100617.38;;;15.87;100.00
57600;BME280;43426;43.594;24.334;2023-06-10T02:41:04;100601.28;;;15.98;100.00
57600;BME280;43426;43.594;24.334;2023-06-10T02:43:30;100629.94;;;16.21;100.00
57600;BME280;43426;43.594;24.334;2023-06-10T02:45:55;100569.91;;;15.82;100.00
57600;BME280;43426;43.594;24.334;2023-06-10T02:48:20;100637.06;;;16.29;100.00
57600;BME280;43426;43.594;24.334;2023-06-10T02:50:46;100608.59;;;16.18;100.00
57600;BME280;43426;43.594;24.334;2023-06-10T02:53:11;100637.06;;;16.36;100.00
57600;BME280;43426;43.594;24.334;2023-06-10T02:55:38;100622.81;;;16.33;100.00
57600;BME280;43426;43.594;24.334;2023-06-10T02:58:04;100609.22;;;16.20;100.00
57600;BME280;43426;43.594;24.334;2023-06-10T03:00:30;100642.28;;;16.30;100.00
57600;BME280;43426;43.594;24.334;2023-06-10T03:02:56;100641.25;;;16.38;100.00
57600;BME280;43426;43.594;24.334;2023-06-10T03:05:25;100637.06;;;16.42;100.00
57600;BME280;43426;43.594;24.334;2023-06-10T03:07:50;100619.03;;;16.28;100.00
57600;BME280;43426;43.594;24.334;2023-06-10T03:10:15;100643.31;;;16.43;100.00
57600;BME280;43426;43.594;24.334;2023-06-10T03:12:41;100632.41;;;16.56;100.00
57600;BME280;43426;43.594;24.334;2023-06-10T03:15:06;100633.44;;;16.62;100.00
57600;BME280;43426;43.594;24.334;2023-06-10T03:17:32;100640.97;;;16.60;100.00
57600;BME280;43426;43.594;24.334;2023-06-10T03:19:57;100645.59;;;16.66;100.00
57600;BME280;43426;43.594;24.334;2023-06-10T03:22:22;100639.09;;;16.60;100.00
57600;BME280;43426;43.594;24.334;2023-06-10T03:24:48;100656.03;;;16.69;100.00
57600;BME280;43426;43.594;24.334;2023-06-10T03:27:15;100630.72;;;16.62;100.00
57600;BME280;43426;43.594;24.334;2023-06-10T03:29:41;100653.09;;;16.77;100.00
57600;BME280;43426;43.594;24.334;2023-06-10T03:32:07;100671.09;;;16.92;100.00
57600;BME280;43426;43.594;24.334;2023-06-10T03:34:32;100667.31;;;16.93;100.00
57600;BME280;43426;43.594;24.334;2023-06-10T03:36:58;100624.81;;;16.72;100.00
57600;BME280;43426;43.594;24.334;2023-06-10T03:39:24;100657.06;;;16.95;100.00
57600;BME280;43426;43.594;24.334;2023-06-10T03:41:50;100632.09;;;16.84;100.00
57600;BME280;43426;43.594;24.334;2023-06-10T03:44:16;100631.28;;;16.84;100.00
57600;BME280;43426;43.594;24.334;2023-06-10T03:46:41;100657.06;;;16.95;100.00
57600;BME280;43426;43.594;24.334;2023-06-10T03:49:06;100643.81;;;16.98;100.00
57600;BME280;43426;43.594;24.334;2023-06-10T03:51:32;100654.28;;;17.01;100.00
57600;BME280;43426;43.594;24.334;2023-06-10T03:53:58;100616.63;;;16.78;100.00
57600;BME280;43426;43.594;24.334;2023-06-10T03:56:23;100651.06;;;17.18;100.00
57600;BME280;43426;43.594;24.334;2023-06-10T03:58:49;100641.41;;;17.22;100.00
57600;BME280;43426;43.594;24.334;2023-06-10T04:01:14;100652.03;;;17.37;100.00
57600;BME280;43426;43.594;24.334;2023-06-10T04:03:42;100650.19;;;17.31;100.00
57600;BME280;43426;43.594;24.334;2023-06-10T04:06:08;100656.63;;;17.43;100.00
57600;BME280;43426;43.594;24.334;2023-06-10T04:08:34;100665.19;;;17.47;100.00
57600;BME280;43426;43.594;24.334;2023-06-10T04:11:01;100662.38;;;17.60;100.00
57600;BME280;43426;43.594;24.334;2023-06-10T04:13:27;100664.22;;;17.66;100.00
57600;BME280;43426;43.594;24.334;2023-06-10T04:15:52;100675.28;;;17.78;100.00
57600;BME280;43426;43.594;24.334;2023-06-10T04:18:19;100670.03;;;17.77;100.00
57600;BME280;43426;43.594;24.334;2023-06-10T04:20:44;100682.56;;;17.84;100.00
57600;BME280;43426;43.594;24.334;2023-06-10T04:23:10;100648.84;;;17.72;100.00
57600;BME280;43426;43.594;24.334;2023-06-10T04:25:35;100657.78;;;17.86;100.00
57600;BME280;43426;43.594;24.334;2023-06-10T04:28:01;100674.50;;;18.03;100.00
57600;BME280;43426;43.594;24.334;2023-06-10T04:30:26;100660.06;;;17.96;100.00
57600;BME280;43426;43.594;24.334;2023-06-10T04:32:52;100680.47;;;18.18;100.00
57600;BME280;43426;43.594;24.334;2023-06-10T04:35:17;100614.97;;;17.86;100.00
57600;BME280;43426;43.594;24.334;2023-06-10T04:37:43;100656.56;;;18.14;100.00
57600;BME280;43426;43.594;24.334;2023-06-10T04:40:08;100670.09;;;18.27;100.00
57600;BME280;43426;43.594;24.334;2023-06-10T04:42:35;100686.41;;;18.34;100.00
57600;BME280;43426;43.594;24.334;2023-06-10T04:45:00;100677.69;;;18.25;100.00
57600;BME280;43426;43.594;24.334;2023-06-10T04:47:27;100687.59;;;18.45;100.00
57600;BME280;43426;43.594;24.334;2023-06-10T04:49:52;100680.56;;;18.55;100.00
57600;BME280;43426;43.594;24.334;2023-06-10T04:52:17;100673.38;;;18.36;100.00
57600;BME280;43426;43.594;24.334;2023-06-10T04:54:43;100669.16;;;18.59;100.00
57600;BME280;43426;43.594;24.334;2023-06-10T04:57:09;100655.63;;;18.45;100.00
57600;BME280;43426;43.594;24.334;2023-06-10T04:59:37;100668.25;;;18.65;100.00
57600;BME280;43426;43.594;24.334;2023-06-10T05:02:06;100671.44;;;18.62;100.00
57600;BME280;43426;43.594;24.334;2023-06-10T05:04:31;100674.41;;;18.79;100.00
57600;BME280;43426;43.594;24.334;2023-06-10T05:06:57;100675.72;;;18.95;100.00
57600;BME280;43426;43.594;24.334;2023-06-10T05:09:22;100652.22;;;18.68;100.00
57600;BME280;43426;43.594;24.334;2023-06-10T05:18:08;100677.13;;;18.60;100.00
57600;BME280;43426;43.594;24.334;2023-06-10T05:20:33;100676.72;;;18.57;100.00
57600;BME280;43426;43.594;24.334;2023-06-10T05:22:59;100668.53;;;18.57;100.00
57600;BME280;43426;43.594;24.334;2023-06-10T05:25:25;100680.09;;;18.77;100.00
57600;BME280;43426;43.594;24.334;2023-06-10T05:27:50;100674.28;;;18.92;100.00
57600;BME280;43426;43.594;24.334;2023-06-10T05:30:16;100674.38;;;19.04;100.00
57600;BME280;43426;43.594;24.334;2023-06-10T05:32:43;100662.66;;;19.15;100.00
57600;BME280;43426;43.594;24.334;2023-06-10T05:35:09;100650.34;;;19.25;100.00
57600;BME280;43426;43.594;24.334;2023-06-10T05:37:34;100649.88;;;19.58;100.00
57600;BME280;43426;43.594;24.334;2023-06-10T05:40:02;100655.09;;;19.60;100.00
57600;BME280;43426;43.594;24.334;2023-06-10T05:42:29;100674.91;;;19.73;100.00
57600;BME280;43426;43.594;24.334;2023-06-10T05:44:55;100674.34;;;19.83;100.00
57600;BME280;43426;43.594;24.334;2023-06-10T05:47:20;100670.78;;;19.83;100.00
57600;BME280;43426;43.594;24.334;2023-06-10T05:49:45;100673.88;;;19.86;100.00
57600;BME280;43426;43.594;24.334;2023-06-10T05:52:13;100666.22;;;19.77;100.00
57600;BME280;43426;43.594;24.334;2023-06-10T05:54:38;100680.06;;;19.82;100.00
57600;BME280;43426;43.594;24.334;2023-06-10T05:57:04;100670.13;;;19.69;100.00
57600;BME280;43426;43.594;24.334;2023-06-10T05:59:31;100645.59;;;19.62;100.00
57600;BME280;43426;43.594;24.334;2023-06-10T06:01:56;100675.47;;;19.94;100.00
57600;BME280;43426;43.594;24.334;2023-06-10T06:04:22;100686.91;;;20.03;100.00
57600;BME280;43426;43.594;24.334;2023-06-10T06:06:47;100630.47;;;19.71;100.00
57600;BME280;43426;43.594;24.334;2023-06-10T06:09:13;100650.09;;;19.99;100.00
57600;BME280;43426;43.594;24.334;2023-06-10T06:11:38;100659.84;;;19.95;100.00
57600;BME280;43426;43.594;24.334;2023-06-10T06:14:03;100668.19;;;20.00;100.00
57600;BME280;43426;43.594;24.334;2023-06-10T06:16:29;100676.69;;;20.22;99.61
57600;BME280;43426;43.594;24.334;2023-06-10T06:18:54;100673.34;;;20.32;100.00
57600;BME280;43426;43.594;24.334;2023-06-10T06:21:20;100680.50;;;20.33;99.55
57600;BME280;43426;43.594;24.334;2023-06-10T06:23:45;100652.63;;;20.12;100.00
57600;BME280;43426;43.594;24.334;2023-06-10T06:26:11;100673.97;;;20.57;99.53
57600;BME280;43426;43.594;24.334;2023-06-10T06:28:36;100677.28;;;20.59;99.58
57600;BME280;43426;43.594;24.334;2023-06-10T06:31:02;100664.44;;;20.72;99.40
57600;BME280;43426;43.594;24.334;2023-06-10T06:33:27;100666.38;;;21.00;96.90
57600;BME280;43426;43.594;24.334;2023-06-10T06:35:52;100661.44;;;21.14;97.41
57600;BME280;43426;43.594;24.334;2023-06-10T06:38:18;100662.63;;;21.18;96.63
57600;BME280;43426;43.594;24.334;2023-06-10T06:40:43;100658.25;;;21.17;96.42
57600;BME280;43426;43.594;24.334;2023-06-10T06:43:09;100665.59;;;21.29;96.11
57600;BME280;43426;43.594;24.334;2023-06-10T06:45:34;100649.13;;;21.29;97.30
57600;BME280;43426;43.594;24.334;2023-06-10T06:48:00;100648.84;;;21.42;97.55
57600;BME280;43426;43.594;24.334;2023-06-10T06:50:25;100657.72;;;21.61;93.82
57600;BME280;43426;43.594;24.334;2023-06-10T06:52:51;100653.31;;;21.60;91.20
57600;BME280;43426;43.594;24.334;2023-06-10T06:55:16;100651.66;;;21.59;90.15
57600;BME280;43426;43.594;24.334;2023-06-10T06:57:41;100641.81;;;21.34;89.83
57600;BME280;43426;43.594;24.334;2023-06-10T07:00:07;100597.09;;;21.05;91.39
57600;BME280;43426;43.594;24.334;2023-06-10T07:02:34;100626.03;;;21.41;91.69
57600;BME280;43426;43.594;24.334;2023-06-10T07:05:00;100648.34;;;21.74;88.08
57600;BME280;43426;43.594;24.334;2023-06-10T07:07:26;100629.09;;;21.28;90.48
57600;BME280;43426;43.594;24.334;2023-06-10T07:09:52;100650.81;;;21.30;92.71
57600;BME280;43426;43.594;24.334;2023-06-10T07:12:17;100626.63;;;21.15;92.48
57600;BME280;43426;43.594;24.334;2023-06-10T07:14:48;100648.13;;;21.35;92.17
57600;BME280;43426;43.594;24.334;2023-06-10T07:17:23;100650.31;;;21.62;90.01
57600;BME280;43426;43.594;24.334;2023-06-10T07:19:53;100654.09;;;21.72;87.61
57600;BME280;43426;43.594;24.334;2023-06-10T07:22:22;100656.91;;;21.77;87.61
57600;BME280;43426;43.594;24.334;2023-06-10T07:24:47;100662.16;;;21.79;86.82
57600;BME280;43426;43.594;24.334;2023-06-10T07:32:34;100640.00;;;21.40;89.05
57600;BME280;43426;43.594;24.334;2023-06-10T07:35:00;100644.53;;;21.46;88.10
57600;BME280;43426;43.594;24.334;2023-06-10T07:37:25;100649.31;;;21.68;88.53
57600;BME280;43426;43.594;24.334;2023-06-10T07:39:51;100662.84;;;22.03;85.94
57600;BME280;43426;43.594;24.334;2023-06-10T07:42:18;100657.91;;;22.05;85.09
57600;BME280;43426;43.594;24.334;2023-06-10T07:44:44;100656.69;;;22.13;84.85
57600;BME280;43426;43.594;24.334;2023-06-10T07:47:13;100629.63;;;22.05;85.04
57600;BME280;43426;43.594;24.334;2023-06-10T07:49:38;100657.25;;;22.49;82.76
57600;BME280;43426;43.594;24.334;2023-06-10T07:52:06;100655.78;;;22.64;82.99
57600;BME280;43426;43.594;24.334;2023-06-10T07:54:32;100649.38;;;22.75;80.49
57600;BME280;43426;43.594;24.334;2023-06-10T07:56:57;100653.66;;;22.88;80.62
57600;BME280;43426;43.594;24.334;2023-06-10T07:59:23;100660.50;;;23.07;79.52
57600;BME280;43426;43.594;24.334;2023-06-10T08:01:50;100650.00;;;23.04;80.58
57600;BME280;43426;43.594;24.334;2023-06-10T08:04:15;100659.69;;;23.29;77.05
57600;BME280;43426;43.594;24.334;2023-06-10T08:06:40;100659.47;;;23.36;78.81
57600;BME280;43426;43.594;24.334;2023-06-10T08:09:06;100654.69;;;23.53;78.65
57600;BME280;43426;43.594;24.334;2023-06-10T08:11:31;100650.41;;;23.95;76.65
57600;BME280;43426;43.594;24.334;2023-06-10T08:13:57;100615.00;;;24.14;74.31
57600;BME280;43426;43.594;24.334;2023-06-10T08:16:22;100643.31;;;24.42;73.82
57600;BME280;43426;43.594;24.334;2023-06-10T08:18:48;100635.31;;;24.40;74.71
57600;BME280;43426;43.594;24.334;2023-06-10T08:21:15;100635.50;;;24.71;73.91
57600;BME280;43426;43.594;24.334;2023-06-10T08:23:41;100652.97;;;24.87;72.58
57600;BME280;43426;43.594;24.334;2023-06-10T08:26:06;100614.00;;;24.73;72.14
57600;BME280;43426;43.594;24.334;2023-06-10T08:28:31;100647.44;;;24.87;71.08
57600;BME280;43426;43.594;24.334;2023-06-10T08:30:57;100645.47;;;24.77;69.08
57600;BME280;43426;43.594;24.334;2023-06-10T08:33:22;100642.50;;;24.46;71.32
57600;BME280;43426;43.594;24.334;2023-06-10T08:35:48;100640.13;;;24.60;72.29
57600;BME280;43426;43.594;24.334;2023-06-10T08:38:13;100652.44;;;24.90;70.67
57600;BME280;43426;43.594;24.334;2023-06-10T08:40:39;100628.41;;;24.91;72.39
57600;BME280;43426;43.594;24.334;2023-06-10T08:45:30;100648.75;;;25.53;68.15
57600;BME280;43426;43.594;24.334;2023-06-10T08:47:57;100648.78;;;25.74;68.13
57600;BME280;43426;43.594;24.334;2023-06-10T08:50:23;100625.31;;;25.87;67.08
57600;BME280;43426;43.594;24.334;2023-06-10T08:52:50;100648.56;;;26.27;66.27
57600;BME280;43426;43.594;24.334;2023-06-10T08:55:23;100616.41;;;26.51;64.52
57600;BME280;43426;43.594;24.334;2023-06-10T08:57:51;100615.84;;;26.55;65.37
57600;BME280;43426;43.594;24.334;2023-06-10T09:00:18;100628.38;;;27.07;64.78
57600;BME280;43426;43.594;24.334;2023-06-10T09:02:46;100575.81;;;26.97;62.06
57600;BME280;43426;43.594;24.334;2023-06-10T09:05:13;100626.19;;;27.54;60.97
57600;BME280;43426;43.594;24.334;2023-06-10T09:07:39;100592.75;;;27.35;60.41
57600;BME280;43426;43.594;24.334;2023-06-10T09:10:05;100623.13;;;27.90;58.85
57600;BME280;43426;43.594;24.334;2023-06-10T09:12:33;100599.47;;;27.98;60.73
57600;BME280;43426;43.594;24.334;2023-06-10T09:15:02;100592.97;;;28.13;57.51
57600;BME280;43426;43.594;24.334;2023-06-10T09:17:28;100600.66;;;28.21;58.04
57600;BME280;43426;43.594;24.334;2023-06-10T09:19:53;100593.41;;;28.25;57.31
57600;BME280;43426;43.594;24.334;2023-06-10T09:22:21;100614.66;;;28.35;58.54
57600;BME280;43426;43.594;24.334;2023-06-10T09:24:47;100589.41;;;28.12;55.21
57600;BME280;43426;43.594;24.334;2023-06-10T09:27:13;100587.00;;;28.00;56.75
57600;BME280;43426;43.594;24.334;2023-06-10T09:29:51;100597.47;;;28.09;57.04
57600;BME280;43426;43.594;24.334;2023-06-10T09:32:18;100535.06;;;27.77;57.65
57600;BME280;43426;43.594;24.334;2023-06-10T09:34:44;100573.56;;;28.13;56.49
57600;BME280;43426;43.594;24.334;2023-06-10T09:37:10;100589.31;;;28.17;56.21
57600;BME280;43426;43.594;24.334;2023-06-10T09:39:39;100588.41;;;28.51;56.07
57600;BME280;43426;43.594;24.334;2023-06-10T09:42:18;100591.31;;;28.65;54.01
57600;BME280;43426;43.594;24.334;2023-06-10T09:44:51;100577.53;;;28.55;53.07
57600;BME280;43426;43.594;24.334;2023-06-10T09:47:22;100569.75;;;28.33;56.35
57600;BME280;43426;43.594;24.334;2023-06-10T09:49:49;100583.66;;;28.52;55.79
57600;BME280;43426;43.594;24.334;2023-06-10T09:52:21;100584.72;;;28.56;54.84
57600;BME280;43426;43.594;24.334;2023-06-10T09:54:47;100575.53;;;28.36;53.70
57600;BME280;43426;43.594;24.334;2023-06-10T09:57:12;100581.25;;;28.21;56.01
57600;BME280;43426;43.594;24.334;2023-06-10T09:59:40;100575.00;;;28.34;55.68
57600;BME280;43426;43.594;24.334;2023-06-10T10:02:13;100577.28;;;28.51;52.40
57600;BME280;43426;43.594;24.334;2023-06-10T10:04:44;100580.00;;;28.81;51.33
57600;BME280;43426;43.594;24.334;2023-06-10T10:07:12;100568.84;;;29.05;53.66
57600;BME280;43426;43.594;24.334;2023-06-10T10:09:40;100561.13;;;29.40;51.17
57600;BME280;43426;43.594;24.334;2023-06-10T10:12:12;100575.84;;;29.93;50.15
57600;BME280;43426;43.594;24.334;2023-06-10T10:14:39;100582.06;;;30.31;47.25
57600;BME280;43426;43.594;24.334;2023-06-10T10:17:09;100573.84;;;30.54;44.49
57600;BME280;43426;43.594;24.334;2023-06-10T10:19:56;100568.38;;;30.49;44.69
57600;BME280;43426;43.594;24.334;2023-06-10T10:22:40;100543.75;;;30.56;47.65
57600;BME280;43426;43.594;24.334;2023-06-10T10:25:35;100570.56;;;31.16;43.94
57600;BME280;43426;43.594;24.334;2023-06-10T10:28:12;100564.00;;;31.35;45.84
57600;BME280;43426;43.594;24.334;2023-06-10T10:30:44;100555.63;;;31.57;42.08
57600;BME280;43426;43.594;24.334;2023-06-10T10:35:57;100541.66;;;32.12;37.90
57600;BME280;43426;43.594;24.334;2023-06-10T10:38:24;100532.41;;;32.34;33.58
57600;BME280;43426;43.594;24.334;2023-06-10T10:41:13;100538.94;;;32.87;32.19
57600;BME280;43426;43.594;24.334;2023-06-10T10:43:39;100525.97;;;32.73;33.55
57600;BME280;43426;43.594;24.334;2023-06-10T10:46:16;100490.56;;;32.69;33.43
57600;BME280;43426;43.594;24.334;2023-06-10T10:48:42;100533.88;;;33.15;32.36
57600;BME280;43426;43.594;24.334;2023-06-10T10:51:09;100532.53;;;33.56;34.49
57600;BME280;43426;43.594;24.334;2023-06-10T10:53:37;100529.97;;;33.99;33.35
57600;BME280;43426;43.594;24.334;2023-06-10T10:56:07;100526.41;;;34.19;31.68
57600;BME280;43426;43.594;24.334;2023-06-10T10:58:33;100522.69;;;34.45;32.63
57600;BME280;43426;43.594;24.334;2023-06-10T11:00:59;100505.78;;;34.24;30.17
57600;BME280;43426;43.594;24.334;2023-06-10T11:03:29;100503.44;;;33.96;31.04
57600;BME280;43426;43.594;24.334;2023-06-10T11:05:58;100512.56;;;34.23;31.05
57600;BME280;43426;43.594;24.334;2023-06-10T11:11:18;100514.16;;;33.29;30.51
57600;BME280;43426;43.594;24.334;2023-06-10T11:14:07;100487.91;;;33.60;30.64
57600;BME280;43426;43.594;24.334;2023-06-10T11:16:40;100501.56;;;34.18;30.45
57600;BME280;43426;43.594;24.334;2023-06-10T11:19:09;100497.16;;;34.38;30.64
57600;BME280;43426;43.594;24.334;2023-06-10T11:22:00;100500.28;;;35.08;28.66
57600;BME280;43426;43.594;24.334;2023-06-10T11:24:26;100478.47;;;35.14;29.92
57600;BME280;43426;43.594;24.334;2023-06-10T11:26:51;100486.28;;;35.42;28.82
57600;BME280;43426;43.594;24.334;2023-06-10T11:29:17;100494.97;;;35.16;27.72
57600;BME280;43426;43.594;24.334;2023-06-10T11:31:45;100474.72;;;35.10;28.58
57600;BME280;43426;43.594;24.334;2023-06-10T11:34:13;100489.72;;;35.26;26.59
57600;BME280;43426;43.594;24.334;2023-06-10T11:36:40;100466.63;;;35.08;27.68
57600;BME280;43426;43.594;24.334;2023-06-10T11:39:08;100477.59;;;35.01;29.54
57600;BME280;43426;43.594;24.334;2023-06-10T11:41:35;100479.72;;;35.04;27.17
57600;BME280;43426;43.594;24.334;2023-06-10T11:44:02;100476.16;;;35.16;27.92
57600;BME280;43426;43.594;24.334;2023-06-10T11:46:28;100465.63;;;35.13;27.22
57600;BME280;43426;43.594;24.334;2023-06-10T11:48:56;100449.03;;;34.87;26.69
57600;BME280;43426;43.594;24.334;2023-06-10T11:51:29;100427.28;;;34.84;28.45
57600;BME280;43426;43.594;24.334;2023-06-10T11:53:55;100436.50;;;35.39;27.55
57600;BME280;43426;43.594;24.334;2023-06-10T11:56:23;100446.31;;;35.33;26.81
57600;BME280;43426;43.594;24.334;2023-06-10T11:59:01;100421.47;;;35.22;27.76
57600;BME280;43426;43.594;24.334;2023-06-10T12:01:32;100449.72;;;34.84;27.27
57600;BME280;43426;43.594;24.334;2023-06-10T12:03:59;100437.75;;;34.74;27.02
57600;BME280;43426;43.594;24.334;2023-06-10T12:06:25;100428.38;;;34.70;28.70
57600;BME280;43426;43.594;24.334;2023-06-10T12:08:51;100445.59;;;35.02;26.98
57600;BME280;43426;43.594;24.334;2023-06-10T12:11:18;100440.84;;;34.82;29.25
57600;BME280;43426;43.594;24.334;2023-06-10T12:13:47;100420.53;;;34.85;30.34
57600;BME280;43426;43.594;24.334;2023-06-10T12:16:16;100437.19;;;35.02;28.70
57600;BME280;43426;43.594;24.334;2023-06-10T12:18:46;100449.34;;;35.06;28.18
57600;BME280;43426;43.594;24.334;2023-06-10T12:21:23;100449.25;;;35.15;28.10
57600;BME280;43426;43.594;24.334;2023-06-10T12:24:02;100442.13;;;35.18;28.87
57600;BME280;43426;43.594;24.334;2023-06-10T12:26:41;100448.34;;;34.90;27.26
57600;BME280;43426;43.594;24.334;2023-06-10T12:29:20;100443.25;;;35.04;29.30
57600;BME280;43426;43.594;24.334;2023-06-10T12:32:03;100443.75;;;35.06;28.70
57600;BME280;43426;43.594;24.334;2023-06-10T12:34:35;100427.66;;;35.16;29.42
57600;BME280;43426;43.594;24.334;2023-06-10T12:37:03;100424.94;;;35.53;26.42
57600;BME280;43426;43.594;24.334;2023-06-10T12:39:32;100437.22;;;35.15;28.81
57600;BME280;43426;43.594;24.334;2023-06-10T12:41:58;100400.78;;;34.81;28.99
57600;BME280;43426;43.594;24.334;2023-06-10T12:44:31;100423.03;;;34.77;28.53
57600;BME280;43426;43.594;24.334;2023-06-10T12:46:57;100408.91;;;34.53;29.19
57600;BME280;43426;43.594;24.334;2023-06-10T12:49:23;100428.44;;;34.40;29.91
57600;BME280;43426;43.594;24.334;2023-06-10T12:51:49;100413.72;;;34.22;28.73
57600;BME280;43426;43.594;24.334;2023-06-10T12:54:14;100409.47;;;34.16;28.95
57600;BME280;43426;43.594;24.334;2023-06-10T12:56:39;100408.56;;;34.33;28.53
57600;BME280;43426;43.594;24.334;2023-06-10T12:59:05;100416.47;;;34.73;28.84
57600;BME280;43426;43.594;24.334;2023-06-10T13:01:33;100406.22;;;34.77;30.08
57600;BME280;43426;43.594;24.334;2023-06-10T13:03:58;100395.91;;;34.69;30.16